sensor_id;sensor_type;location;lat;lon;timestamp;P1;durP1;ratioP1;P2;durP2;ratioP2
57335;SDS011;43171;50.994;18.204;2022-09-03T00:10:40;2.30;;;1.50;;
57335;SDS011;43171;50.994;18.204;2022-09-03T00:13:13;4.80;;;2.00;;
57335;SDS011;43171;50.994;18.204;2022-09-03T00:15:42;3.40;;;1.70;;
57335;SDS011;43171;50.994;18.204;2022-09-03T00:18:09;4.40;;;1.80;;
57335;SDS011;43171;50.994;18.204;2022-09-03T00:23:22;3.50;;;1.80;;
57335;SDS011;43171;50.994;18.204;2022-09-03T00:28:37;3.20;;;1.70;;
57335;SDS011;43171;50.994;18.204;2022-09-03T00:31:28;3.20;;;2.00;;
57335;SDS011;43171;50.994;18.204;2022-09-03T00:34:05;4.00;;;2.00;;
57335;SDS011;43171;50.994;18.204;2022-09-03T00:36:39;2.80;;;1.80;;
57335;SDS011;43171;50.994;18.204;2022-09-03T00:39:10;3.70;;;1.90;;
57335;SDS011;43171;50.994;18.204;2022-09-03T00:41:39;3.10;;;1.80;;
57335;SDS011;43171;50.994;18.204;2022-09-03T00:50:08;3.70;;;1.90;;
57335;SDS011;43171;50.994;18.204;2022-09-03T01:04:34;4.20;;;1.90;;
57335;SDS011;43171;50.994;18.204;2022-09-03T01:13:22;3.60;;;2.00;;
57335;SDS011;43171;50.994;18.204;2022-09-03T01:23:55;3.60;;;2.20;;
57335;SDS011;43171;50.994;18.204;2022-09-03T01:29:33;3.90;;;2.10;;
57335;SDS011;43171;50.994;18.204;2022-09-03T01:37:28;3.80;;;2.00;;
57335;SDS011;43171;50.994;18.204;2022-09-03T01:40:11;3.50;;;2.10;;
57335;SDS011;43171;50.994;18.204;2022-09-03T01:59:32;4.10;;;2.20;;
57335;SDS011;43171;50.994;18.204;2022-09-03T02:05:02;3.20;;;2.00;;
57335;SDS011;43171;50.994;18.204;2022-09-03T02:07:34;3.40;;;2.20;;
57335;SDS011;43171;50.994;18.204;2022-09-03T02:10:10;4.60;;;2.20;;
57335;SDS011;43171;50.994;18.204;2022-09-03T02:15:09;4.20;;;1.80;;
57335;SDS011;43171;50.994;18.204;2022-09-03T02:17:37;3.20;;;1.90;;
57335;SDS011;43171;50.994;18.204;2022-09-03T02:20:07;5.90;;;2.20;;
57335;SDS011;43171;50.994;18.204;2022-09-03T02:22:36;2.90;;;2.00;;
57335;SDS011;43171;50.994;18.204;2022-09-03T02:25:03;2.80;;;1.80;;
57335;SDS011;43171;50.994;18.204;2022-09-03T02:27:29;4.10;;;2.00;;
57335;SDS011;43171;50.994;18.204;2022-09-03T02:29:55;5.10;;;2.30;;
57335;SDS011;43171;50.994;18.204;2022-09-03T02:32:21;5.80;;;2.30;;
57335;SDS011;43171;50.994;18.204;2022-09-03T02:34:47;3.90;;;1.80;;
57335;SDS011;43171;50.994;18.204;2022-09-03T02:37:13;6.80;;;2.10;;
57335;SDS011;43171;50.994;18.204;2022-09-03T02:39:40;2.80;;;2.00;;
57335;SDS011;43171;50.994;18.204;2022-09-03T02:42:07;3.40;;;2.00;;
57335;SDS011;43171;50.994;18.204;2022-09-03T02:44:35;4.10;;;2.00;;
57335;SDS011;43171;50.994;18.204;2022-09-03T02:47:05;3.60;;;2.00;;
57335;SDS011;43171;50.994;18.204;2022-09-03T02:49:32;3.30;;;1.90;;
57335;SDS011;43171;50.994;18.204;2022-09-03T02:51:58;3.20;;;2.10;;
57335;SDS011;43171;50.994;18.204;2022-09-03T02:54:25;4.40;;;2.30;;
57335;SDS011;43171;50.994;18.204;2022-09-03T02:56:51;3.60;;;2.30;;
57335;SDS011;43171;50.994;18.204;2022-09-03T02:59:17;3.20;;;1.90;;
57335;SDS011;43171;50.994;18.204;2022-09-03T03:01:42;3.80;;;2.30;;
57335;SDS011;43171;50.994;18.204;2022-09-03T03:04:08;5.20;;;2.00;;
57335;SDS011;43171;50.994;18.204;2022-09-03T03:06:34;3.60;;;2.20;;
57335;SDS011;43171;50.994;18.204;2022-09-03T03:08:59;3.90;;;2.30;;
57335;SDS011;43171;50.994;18.204;2022-09-03T03:11:30;3.00;;;2.10;;
57335;SDS011;43171;50.994;18.204;2022-09-03T03:13:56;4.20;;;2.30;;
57335;SDS011;43171;50.994;18.204;2022-09-03T03:16:21;3.70;;;2.00;;
57335;SDS011;43171;50.994;18.204;2022-09-03T03:18:47;5.00;;;2.20;;
57335;SDS011;43171;50.994;18.204;2022-09-03T03:21:13;4.10;;;2.30;;
57335;SDS011;43171;50.994;18.204;2022-09-03T03:23:41;4.80;;;2.10;;
57335;SDS011;43171;50.994;18.204;2022-09-03T03:26:07;4.10;;;2.10;;
57335;SDS011;43171;50.994;18.204;2022-09-03T03:28:38;4.90;;;2.30;;
57335;SDS011;43171;50.994;18.204;2022-09-03T03:31:13;3.60;;;2.10;;
57335;SDS011;43171;50.994;18.204;2022-09-03T03:33:43;3.70;;;2.20;;
57335;SDS011;43171;50.994;18.204;2022-09-03T03:36:12;4.90;;;2.30;;
57335;SDS011;43171;50.994;18.204;2022-09-03T03:38:40;5.30;;;2.10;;
57335;SDS011;43171;50.994;18.204;2022-09-03T03:41:11;4.00;;;2.00;;
57335;SDS011;43171;50.994;18.204;2022-09-03T03:43:41;4.60;;;2.20;;
57335;SDS011;43171;50.994;18.204;2022-09-03T03:46:07;3.40;;;2.10;;
57335;SDS011;43171;50.994;18.204;2022-09-03T03:48:34;3.50;;;2.00;;
57335;SDS011;43171;50.994;18.204;2022-09-03T03:51:01;4.20;;;2.20;;
57335;SDS011;43171;50.994;18.204;2022-09-03T03:53:28;3.90;;;2.10;;
57335;SDS011;43171;50.994;18.204;2022-09-03T03:55:58;4.50;;;2.10;;
57335;SDS011;43171;50.994;18.204;2022-09-03T03:58:27;3.00;;;2.10;;
57335;SDS011;43171;50.994;18.204;2022-09-03T04:00:53;3.90;;;2.00;;
57335;SDS011;43171;50.994;18.204;2022-09-03T04:03:19;4.40;;;2.30;;
57335;SDS011;43171;50.994;18.204;2022-09-03T04:05:54;4.30;;;2.00;;
57335;SDS011;43171;50.994;18.204;2022-09-03T04:08:21;3.60;;;2.10;;
57335;SDS011;43171;50.994;18.204;2022-09-03T04:10:47;4.00;;;2.30;;
57335;SDS011;43171;50.994;18.204;2022-09-03T04:13:13;3.90;;;2.40;;
57335;SDS011;43171;50.994;18.204;2022-09-03T04:15:38;2.80;;;2.10;;
57335;SDS011;43171;50.994;18.204;2022-09-03T04:18:04;4.30;;;2.10;;
57335;SDS011;43171;50.994;18.204;2022-09-03T04:20:30;5.70;;;2.30;;
57335;SDS011;43171;50.994;18.204;2022-09-03T04:22:59;3.90;;;2.20;;
57335;SDS011;43171;50.994;18.204;2022-09-03T04:25:25;4.60;;;2.50;;
57335;SDS011;43171;50.994;18.204;2022-09-03T04:27:53;7.30;;;2.30;;
57335;SDS011;43171;50.994;18.204;2022-09-03T04:30:19;4.20;;;2.20;;
57335;SDS011;43171;50.994;18.204;2022-09-03T04:32:45;4.40;;;2.30;;
57335;SDS011;43171;50.994;18.204;2022-09-03T04:35:21;3.20;;;2.20;;
57335;SDS011;43171;50.994;18.204;2022-09-03T04:37:47;4.80;;;2.20;;
57335;SDS011;43171;50.994;18.204;2022-09-03T04:40:13;5.00;;;2.20;;
57335;SDS011;43171;50.994;18.204;2022-09-03T04:42:39;3.10;;;2.10;;
57335;SDS011;43171;50.994;18.204;2022-09-03T04:45:05;3.90;;;2.40;;
57335;SDS011;43171;50.994;18.204;2022-09-03T04:47:31;4.50;;;2.50;;
57335;SDS011;43171;50.994;18.204;2022-09-03T04:49:57;4.60;;;2.20;;
57335;SDS011;43171;50.994;18.204;2022-09-03T04:52:23;4.30;;;2.30;;
57335;SDS011;43171;50.994;18.204;2022-09-03T04:54:49;4.30;;;2.40;;
57335;SDS011;43171;50.994;18.204;2022-09-03T04:57:15;8.00;;;2.80;;
57335;SDS011;43171;50.994;18.204;2022-09-03T04:59:40;5.20;;;2.50;;
57335;SDS011;43171;50.994;18.204;2022-09-03T05:02:07;4.10;;;2.20;;
57335;SDS011;43171;50.994;18.204;2022-09-03T05:04:34;5.30;;;2.10;;
57335;SDS011;43171;50.994;18.204;2022-09-03T05:06:59;3.10;;;2.30;;
57335;SDS011;43171;50.994;18.204;2022-09-03T05:09:25;6.00;;;2.70;;
57335;SDS011;43171;50.994;18.204;2022-09-03T05:11:51;4.00;;;2.60;;
57335;SDS011;43171;50.994;18.204;2022-09-03T05:14:16;4.40;;;2.50;;
57335;SDS011;43171;50.994;18.204;2022-09-03T05:16:41;5.50;;;2.20;;
57335;SDS011;43171;50.994;18.204;2022-09-03T05:19:07;4.50;;;2.50;;
57335;SDS011;43171;50.994;18.204;2022-09-03T05:21:33;4.00;;;2.40;;
57335;SDS011;43171;50.994;18.204;2022-09-03T05:24:02;3.90;;;2.40;;
57335;SDS011;43171;50.994;18.204;2022-09-03T05:26:29;4.90;;;2.60;;
57335;SDS011;43171;50.994;18.204;2022-09-03T05:28:59;4.20;;;2.50;;
57335;SDS011;43171;50.994;18.204;2022-09-03T05:31:27;5.50;;;2.60;;
57335;SDS011;43171;50.994;18.204;2022-09-03T05:33:56;4.60;;;2.50;;
57335;SDS011;43171;50.994;18.204;2022-09-03T05:36:24;4.50;;;2.50;;
57335;SDS011;43171;50.994;18.204;2022-09-03T05:38:52;3.70;;;2.40;;
57335;SDS011;43171;50.994;18.204;2022-09-03T05:41:20;5.70;;;2.30;;
57335;SDS011;43171;50.994;18.204;2022-09-03T05:43:47;3.80;;;2.60;;
57335;SDS011;43171;50.994;18.204;2022-09-03T05:46:19;5.00;;;2.50;;
57335;SDS011;43171;50.994;18.204;2022-09-03T05:48:45;4.10;;;2.50;;
57335;SDS011;43171;50.994;18.204;2022-09-03T05:51:12;4.40;;;2.60;;
57335;SDS011;43171;50.994;18.204;2022-09-03T05:53:45;3.80;;;2.40;;
57335;SDS011;43171;50.994;18.204;2022-09-03T05:56:14;4.10;;;2.50;;
57335;SDS011;43171;50.994;18.204;2022-09-03T05:58:45;3.90;;;2.40;;
57335;SDS011;43171;50.994;18.204;2022-09-03T06:01:13;5.90;;;2.50;;
57335;SDS011;43171;50.994;18.204;2022-09-03T06:03:41;5.20;;;2.60;;
57335;SDS011;43171;50.994;18.204;2022-09-03T06:06:07;4.40;;;2.70;;
57335;SDS011;43171;50.994;18.204;2022-09-03T06:08:33;3.80;;;2.50;;
57335;SDS011;43171;50.994;18.204;2022-09-03T06:11:00;4.50;;;2.60;;
57335;SDS011;43171;50.994;18.204;2022-09-03T06:13:28;5.70;;;2.70;;
57335;SDS011;43171;50.994;18.204;2022-09-03T06:15:55;5.40;;;2.60;;
57335;SDS011;43171;50.994;18.204;2022-09-03T06:18:21;4.30;;;2.50;;
57335;SDS011;43171;50.994;18.204;2022-09-03T06:20:58;6.50;;;2.70;;
57335;SDS011;43171;50.994;18.204;2022-09-03T06:23:25;4.90;;;2.80;;
57335;SDS011;43171;50.994;18.204;2022-09-03T06:26:10;6.00;;;2.90;;
57335;SDS011;43171;50.994;18.204;2022-09-03T06:28:37;5.60;;;2.70;;
57335;SDS011;43171;50.994;18.204;2022-09-03T06:31:05;5.90;;;2.80;;
57335;SDS011;43171;50.994;18.204;2022-09-03T06:33:33;5.60;;;3.00;;
57335;SDS011;43171;50.994;18.204;2022-09-03T06:36:01;5.70;;;3.00;;
57335;SDS011;43171;50.994;18.204;2022-09-03T06:38:29;5.20;;;2.90;;
57335;SDS011;43171;50.994;18.204;2022-09-03T06:41:03;5.40;;;2.80;;
57335;SDS011;43171;50.994;18.204;2022-09-03T06:43:38;5.80;;;2.80;;
57335;SDS011;43171;50.994;18.204;2022-09-03T06:46:06;6.30;;;2.90;;
57335;SDS011;43171;50.994;18.204;2022-09-03T06:48:39;5.90;;;3.00;;
57335;SDS011;43171;50.994;18.204;2022-09-03T06:51:06;6.50;;;2.90;;
57335;SDS011;43171;50.994;18.204;2022-09-03T06:53:37;4.20;;;2.70;;
57335;SDS011;43171;50.994;18.204;2022-09-03T06:56:11;4.60;;;2.70;;
57335;SDS011;43171;50.994;18.204;2022-09-03T06:58:39;6.00;;;3.10;;
57335;SDS011;43171;50.994;18.204;2022-09-03T07:01:15;8.00;;;2.90;;
57335;SDS011;43171;50.994;18.204;2022-09-03T07:03:42;5.00;;;2.80;;
57335;SDS011;43171;50.994;18.204;2022-09-03T07:06:10;4.90;;;3.20;;
57335;SDS011;43171;50.994;18.204;2022-09-03T07:08:38;5.70;;;3.20;;
57335;SDS011;43171;50.994;18.204;2022-09-03T07:11:05;5.30;;;3.20;;
57335;SDS011;43171;50.994;18.204;2022-09-03T07:13:35;5.80;;;3.10;;
57335;SDS011;43171;50.994;18.204;2022-09-03T07:16:02;6.90;;;3.10;;
57335;SDS011;43171;50.994;18.204;2022-09-03T07:18:35;7.20;;;3.40;;
57335;SDS011;43171;50.994;18.204;2022-09-03T07:21:02;7.40;;;3.50;;
57335;SDS011;43171;50.994;18.204;2022-09-03T07:23:33;5.70;;;3.00;;
57335;SDS011;43171;50.994;18.204;2022-09-03T07:26:00;6.20;;;3.50;;
57335;SDS011;43171;50.994;18.204;2022-09-03T07:28:28;7.10;;;3.70;;
57335;SDS011;43171;50.994;18.204;2022-09-03T07:30:59;5.90;;;3.20;;
57335;SDS011;43171;50.994;18.204;2022-09-03T07:33:29;6.40;;;3.10;;
57335;SDS011;43171;50.994;18.204;2022-09-03T07:35:55;16.70;;;10.20;;
57335;SDS011;43171;50.994;18.204;2022-09-03T07:38:21;6.20;;;3.70;;
57335;SDS011;43171;50.994;18.204;2022-09-03T07:40:48;6.10;;;3.80;;
57335;SDS011;43171;50.994;18.204;2022-09-03T07:43:23;7.20;;;3.40;;
57335;SDS011;43171;50.994;18.204;2022-09-03T07:45:51;5.80;;;3.30;;
57335;SDS011;43171;50.994;18.204;2022-09-03T07:48:20;5.70;;;3.70;;
57335;SDS011;43171;50.994;18.204;2022-09-03T07:50:45;7.70;;;3.80;;
57335;SDS011;43171;50.994;18.204;2022-09-03T07:53:12;5.90;;;4.10;;
57335;SDS011;43171;50.994;18.204;2022-09-03T07:55:38;7.10;;;3.90;;
57335;SDS011;43171;50.994;18.204;2022-09-03T07:58:04;7.20;;;3.60;;
57335;SDS011;43171;50.994;18.204;2022-09-03T08:00:30;9.50;;;3.80;;
57335;SDS011;43171;50.994;18.204;2022-09-03T08:02:58;8.20;;;4.70;;
57335;SDS011;43171;50.994;18.204;2022-09-03T08:05:33;12.00;;;8.90;;
57335;SDS011;43171;50.994;18.204;2022-09-03T08:08:03;18.00;;;9.60;;
57335;SDS011;43171;50.994;18.204;2022-09-03T08:10:33;13.40;;;7.20;;
57335;SDS011;43171;50.994;18.204;2022-09-03T08:12:59;13.80;;;7.70;;
57335;SDS011;43171;50.994;18.204;2022-09-03T08:15:25;8.10;;;4.20;;
57335;SDS011;43171;50.994;18.204;2022-09-03T08:17:51;7.70;;;4.30;;
57335;SDS011;43171;50.994;18.204;2022-09-03T08:20:17;8.90;;;4.40;;
57335;SDS011;43171;50.994;18.204;2022-09-03T08:22:44;8.30;;;4.40;;
57335;SDS011;43171;50.994;18.204;2022-09-03T08:25:09;13.50;;;8.70;;
57335;SDS011;43171;50.994;18.204;2022-09-03T08:27:35;7.90;;;4.00;;
57335;SDS011;43171;50.994;18.204;2022-09-03T08:30:00;8.10;;;4.90;;
57335;SDS011;43171;50.994;18.204;2022-09-03T08:32:28;10.50;;;5.30;;
57335;SDS011;43171;50.994;18.204;2022-09-03T08:34:54;7.40;;;3.90;;
57335;SDS011;43171;50.994;18.204;2022-09-03T08:37:19;6.30;;;3.70;;
57335;SDS011;43171;50.994;18.204;2022-09-03T08:39:45;6.90;;;3.40;;
57335;SDS011;43171;50.994;18.204;2022-09-03T08:45:02;6.60;;;4.00;;
57335;SDS011;43171;50.994;18.204;2022-09-03T08:47:43;6.10;;;3.80;;
57335;SDS011;43171;50.994;18.204;2022-09-03T08:53:10;5.40;;;3.60;;
57335;SDS011;43171;50.994;18.204;2022-09-03T08:55:54;6.10;;;3.80;;
57335;SDS011;43171;50.994;18.204;2022-09-03T08:58:26;6.90;;;3.30;;
57335;SDS011;43171;50.994;18.204;2022-09-03T09:09:01;6.30;;;3.20;;
57335;SDS011;43171;50.994;18.204;2022-09-03T09:11:39;5.50;;;3.30;;
57335;SDS011;43171;50.994;18.204;2022-09-03T09:20:13;6.80;;;3.00;;
57335;SDS011;43171;50.994;18.204;2022-09-03T09:22:42;5.80;;;3.30;;
57335;SDS011;43171;50.994;18.204;2022-09-03T09:25:12;6.90;;;3.50;;
57335;SDS011;43171;50.994;18.204;2022-09-03T09:27:59;5.70;;;3.30;;
57335;SDS011;43171;50.994;18.204;2022-09-03T09:30:30;6.80;;;3.10;;
57335;SDS011;43171;50.994;18.204;2022-09-03T09:32:56;7.30;;;2.90;;
57335;SDS011;43171;50.994;18.204;2022-09-03T09:35:22;5.40;;;2.80;;
57335;SDS011;43171;50.994;18.204;2022-09-03T09:37:48;6.90;;;3.10;;
57335;SDS011;43171;50.994;18.204;2022-09-03T09:40:23;5.30;;;2.60;;
57335;SDS011;43171;50.994;18.204;2022-09-03T09:43:05;5.20;;;2.90;;
57335;SDS011;43171;50.994;18.204;2022-09-03T09:45:36;7.50;;;2.80;;
57335;SDS011;43171;50.994;18.204;2022-09-03T09:50:44;6.10;;;3.00;;
57335;SDS011;43171;50.994;18.204;2022-09-03T09:53:10;7.40;;;3.90;;
57335;SDS011;43171;50.994;18.204;2022-09-03T09:55:50;12.30;;;7.20;;
57335;SDS011;43171;50.994;18.204;2022-09-03T09:58:18;12.10;;;7.40;;
57335;SDS011;43171;50.994;18.204;2022-09-03T10:00:59;32.10;;;20.90;;
57335;SDS011;43171;50.994;18.204;2022-09-03T10:03:29;20.50;;;13.50;;
57335;SDS011;43171;50.994;18.204;2022-09-03T10:05:59;10.00;;;6.00;;
57335;SDS011;43171;50.994;18.204;2022-09-03T10:08:49;8.60;;;5.30;;
57335;SDS011;43171;50.994;18.204;2022-09-03T10:11:15;11.10;;;8.10;;
57335;SDS011;43171;50.994;18.204;2022-09-03T10:13:42;6.60;;;3.60;;
57335;SDS011;43171;50.994;18.204;2022-09-03T10:16:19;6.40;;;2.70;;
57335;SDS011;43171;50.994;18.204;2022-09-03T10:19:02;7.90;;;4.50;;
57335;SDS011;43171;50.994;18.204;2022-09-03T10:21:38;8.40;;;4.60;;
57335;SDS011;43171;50.994;18.204;2022-09-03T10:26:52;6.00;;;4.10;;
57335;SDS011;43171;50.994;18.204;2022-09-03T10:29:20;6.60;;;2.90;;
57335;SDS011;43171;50.994;18.204;2022-09-03T10:32:03;8.50;;;3.50;;
57335;SDS011;43171;50.994;18.204;2022-09-03T10:34:46;5.10;;;3.50;;
57335;SDS011;43171;50.994;18.204;2022-09-03T10:40:13;5.00;;;3.10;;
57335;SDS011;43171;50.994;18.204;2022-09-03T10:42:44;6.00;;;3.10;;
57335;SDS011;43171;50.994;18.204;2022-09-03T10:50:52;6.40;;;3.00;;
57335;SDS011;43171;50.994;18.204;2022-09-03T10:56:14;4.10;;;2.60;;
57335;SDS011;43171;50.994;18.204;2022-09-03T11:04:25;8.60;;;3.20;;
57335;SDS011;43171;50.994;18.204;2022-09-03T11:06:56;5.30;;;2.90;;
57335;SDS011;43171;50.994;18.204;2022-09-03T11:09:30;8.80;;;2.90;;
57335;SDS011;43171;50.994;18.204;2022-09-03T11:12:05;4.50;;;2.60;;
57335;SDS011;43171;50.994;18.204;2022-09-03T11:17:13;6.40;;;2.70;;
57335;SDS011;43171;50.994;18.204;2022-09-03T11:19:55;4.40;;;2.60;;
57335;SDS011;43171;50.994;18.204;2022-09-03T11:22:36;4.10;;;2.70;;
57335;SDS011;43171;50.994;18.204;2022-09-03T11:25:03;5.10;;;2.50;;
57335;SDS011;43171;50.994;18.204;2022-09-03T11:27:35;4.80;;;2.60;;
57335;SDS011;43171;50.994;18.204;2022-09-03T11:30:11;6.20;;;2.40;;
57335;SDS011;43171;50.994;18.204;2022-09-03T11:35:15;4.50;;;2.70;;
57335;SDS011;43171;50.994;18.204;2022-09-03T11:37:53;4.50;;;2.70;;
57335;SDS011;43171;50.994;18.204;2022-09-03T11:40:59;5.80;;;2.70;;
57335;SDS011;43171;50.994;18.204;2022-09-03T11:43:35;6.90;;;3.00;;
57335;SDS011;43171;50.994;18.204;2022-09-03T11:46:02;5.50;;;2.90;;
57335;SDS011;43171;50.994;18.204;2022-09-03T11:48:36;7.30;;;3.20;;
57335;SDS011;43171;50.994;18.204;2022-09-03T11:53:55;6.00;;;2.80;;
57335;SDS011;43171;50.994;18.204;2022-09-03T11:56:29;8.10;;;2.90;;
57335;SDS011;43171;50.994;18.204;2022-09-03T11:59:00;4.50;;;2.70;;
57335;SDS011;43171;50.994;18.204;2022-09-03T12:01:29;6.60;;;3.20;;
57335;SDS011;43171;50.994;18.204;2022-09-03T12:04:00;5.50;;;2.70;;
57335;SDS011;43171;50.994;18.204;2022-09-03T12:15:03;5.10;;;2.70;;
57335;SDS011;43171;50.994;18.204;2022-09-03T12:20:43;5.90;;;3.30;;
57335;SDS011;43171;50.994;18.204;2022-09-03T12:23:29;5.50;;;3.10;;
57335;SDS011;43171;50.994;18.204;2022-09-03T12:26:03;5.10;;;3.00;;
57335;SDS011;43171;50.994;18.204;2022-09-03T12:28:33;16.90;;;4.60;;
57335;SDS011;43171;50.994;18.204;2022-09-03T12:31:07;6.30;;;3.10;;
57335;SDS011;43171;50.994;18.204;2022-09-03T12:33:49;6.60;;;3.30;;
57335;SDS011;43171;50.994;18.204;2022-09-03T12:36:18;8.40;;;3.40;;
57335;SDS011;43171;50.994;18.204;2022-09-03T12:38:45;4.70;;;3.00;;
57335;SDS011;43171;50.994;18.204;2022-09-03T12:41:22;7.00;;;3.10;;
57335;SDS011;43171;50.994;18.204;2022-09-03T12:43:54;6.90;;;3.10;;
57335;SDS011;43171;50.994;18.204;2022-09-03T12:46:22;4.80;;;3.20;;
57335;SDS011;43171;50.994;18.204;2022-09-03T12:48:52;6.70;;;3.00;;
57335;SDS011;43171;50.994;18.204;2022-09-03T12:51:19;5.30;;;3.00;;
57335;SDS011;43171;50.994;18.204;2022-09-03T12:53:45;4.30;;;2.90;;
57335;SDS011;43171;50.994;18.204;2022-09-03T12:56:12;5.50;;;3.00;;
57335;SDS011;43171;50.994;18.204;2022-09-03T12:58:43;4.70;;;3.00;;
57335;SDS011;43171;50.994;18.204;2022-09-03T13:01:12;5.90;;;3.10;;
57335;SDS011;43171;50.994;18.204;2022-09-03T13:06:13;4.40;;;3.10;;
57335;SDS011;43171;50.994;18.204;2022-09-03T13:08:44;6.20;;;3.40;;
57335;SDS011;43171;50.994;18.204;2022-09-03T13:11:14;6.20;;;3.40;;
57335;SDS011;43171;50.994;18.204;2022-09-03T13:13:47;6.10;;;3.30;;
57335;SDS011;43171;50.994;18.204;2022-09-03T13:16:29;6.50;;;3.30;;
57335;SDS011;43171;50.994;18.204;2022-09-03T13:22:10;6.60;;;3.40;;
57335;SDS011;43171;50.994;18.204;2022-09-03T13:30:06;6.00;;;3.30;;
57335;SDS011;43171;50.994;18.204;2022-09-03T13:35:26;6.70;;;3.40;;
57335;SDS011;43171;50.994;18.204;2022-09-03T13:38:08;5.20;;;3.20;;
57335;SDS011;43171;50.994;18.204;2022-09-03T13:46:06;5.10;;;3.40;;
57335;SDS011;43171;50.994;18.204;2022-09-03T13:48:40;5.50;;;3.30;;
57335;SDS011;43171;50.994;18.204;2022-09-03T13:51:26;5.60;;;3.30;;
57335;SDS011;43171;50.994;18.204;2022-09-03T14:01:54;8.50;;;3.70;;
57335;SDS011;43171;50.994;18.204;2022-09-03T14:04:32;6.30;;;3.30;;
57335;SDS011;43171;50.994;18.204;2022-09-03T14:07:10;5.20;;;3.40;;
57335;SDS011;43171;50.994;18.204;2022-09-03T14:10:00;7.40;;;3.60;;
57335;SDS011;43171;50.994;18.204;2022-09-03T14:12:43;5.90;;;3.50;;
57335;SDS011;43171;50.994;18.204;2022-09-03T14:15:16;6.20;;;3.40;;
57335;SDS011;43171;50.994;18.204;2022-09-03T14:23:35;7.70;;;3.50;;
57335;SDS011;43171;50.994;18.204;2022-09-03T14:26:06;4.70;;;3.50;;
57335;SDS011;43171;50.994;18.204;2022-09-03T14:28:43;7.10;;;3.40;;
57335;SDS011;43171;50.994;18.204;2022-09-03T14:52:59;7.70;;;3.50;;
57335;SDS011;43171;50.994;18.204;2022-09-03T14:58:43;5.40;;;3.40;;
57335;SDS011;43171;50.994;18.204;2022-09-03T15:04:04;4.60;;;3.40;;
57335;SDS011;43171;50.994;18.204;2022-09-03T15:12:34;4.70;;;3.40;;
57335;SDS011;43171;50.994;18.204;2022-09-03T15:18:01;6.10;;;3.50;;
57335;SDS011;43171;50.994;18.204;2022-09-03T15:20:40;9.70;;;3.80;;
57335;SDS011;43171;50.994;18.204;2022-09-03T15:26:13;5.40;;;3.40;;
57335;SDS011;43171;50.994;18.204;2022-09-03T15:29:03;5.70;;;3.40;;
57335;SDS011;43171;50.994;18.204;2022-09-03T15:37:33;6.00;;;3.30;;
57335;SDS011;43171;50.994;18.204;2022-09-03T15:40:28;5.40;;;3.30;;
57335;SDS011;43171;50.994;18.204;2022-09-03T15:42:59;6.00;;;3.30;;
57335;SDS011;43171;50.994;18.204;2022-09-03T15:48:21;8.90;;;3.40;;
57335;SDS011;43171;50.994;18.204;2022-09-03T15:51:12;5.00;;;3.10;;
57335;SDS011;43171;50.994;18.204;2022-09-03T15:53:56;4.70;;;3.20;;
57335;SDS011;43171;50.994;18.204;2022-09-03T15:56:33;5.50;;;3.00;;
57335;SDS011;43171;50.994;18.204;2022-09-03T15:59:20;5.40;;;3.60;;
57335;SDS011;43171;50.994;18.204;2022-09-03T16:07:25;4.40;;;3.30;;
57335;SDS011;43171;50.994;18.204;2022-09-03T16:15:42;4.90;;;3.20;;
57335;SDS011;43171;50.994;18.204;2022-09-03T16:18:54;4.40;;;3.70;;
57335;SDS011;43171;50.994;18.204;2022-09-03T16:24:19;5.60;;;3.70;;
57335;SDS011;43171;50.994;18.204;2022-09-03T16:29:29;5.00;;;3.80;;
57335;SDS011;43171;50.994;18.204;2022-09-03T16:32:02;6.00;;;3.80;;
57335;SDS011;43171;50.994;18.204;2022-09-03T16:46:03;7.40;;;4.20;;
57335;SDS011;43171;50.994;18.204;2022-09-03T16:59:57;7.80;;;4.00;;
57335;SDS011;43171;50.994;18.204;2022-09-03T17:02:52;7.20;;;4.60;;
57335;SDS011;43171;50.994;18.204;2022-09-03T17:10:53;8.10;;;4.80;;
57335;SDS011;43171;50.994;18.204;2022-09-03T17:24:49;6.70;;;4.70;;
57335;SDS011;43171;50.994;18.204;2022-09-03T17:30:19;6.20;;;4.70;;
57335;SDS011;43171;50.994;18.204;2022-09-03T17:47:16;7.40;;;4.50;;
57335;SDS011;43171;50.994;18.204;2022-09-03T17:49:47;5.50;;;4.00;;
57335;SDS011;43171;50.994;18.204;2022-09-03T17:52:23;6.60;;;4.30;;
57335;SDS011;43171;50.994;18.204;2022-09-03T17:54:53;7.00;;;4.10;;
57335;SDS011;43171;50.994;18.204;2022-09-03T17:57:31;5.10;;;4.20;;
57335;SDS011;43171;50.994;18.204;2022-09-03T18:00:04;5.40;;;4.00;;
57335;SDS011;43171;50.994;18.204;2022-09-03T18:05:18;6.30;;;4.50;;
57335;SDS011;43171;50.994;18.204;2022-09-03T18:07:49;5.90;;;4.30;;
57335;SDS011;43171;50.994;18.204;2022-09-03T18:13:33;5.60;;;4.20;;
57335;SDS011;43171;50.994;18.204;2022-09-03T18:16:21;6.70;;;4.60;;
57335;SDS011;43171;50.994;18.204;2022-09-03T18:19:01;5.50;;;4.60;;
57335;SDS011;43171;50.994;18.204;2022-09-03T18:21:41;7.70;;;4.10;;
57335;SDS011;43171;50.994;18.204;2022-09-03T18:24:29;6.20;;;4.00;;
57335;SDS011;43171;50.994;18.204;2022-09-03T18:30:41;6.90;;;4.60;;
57335;SDS011;43171;50.994;18.204;2022-09-03T18:33:25;6.00;;;4.50;;
57335;SDS011;43171;50.994;18.204;2022-09-03T18:36:11;7.10;;;4.70;;
57335;SDS011;43171;50.994;18.204;2022-09-03T18:39:07;5.10;;;4.10;;
57335;SDS011;43171;50.994;18.204;2022-09-03T18:42:05;6.30;;;4.60;;
57335;SDS011;43171;50.994;18.204;2022-09-03T18:45:09;7.20;;;4.90;;
57335;SDS011;43171;50.994;18.204;2022-09-03T18:51:41;6.10;;;4.90;;
57335;SDS011;43171;50.994;18.204;2022-09-03T18:54:38;7.90;;;5.00;;
57335;SDS011;43171;50.994;18.204;2022-09-03T19:10:26;7.70;;;5.30;;
57335;SDS011;43171;50.994;18.204;2022-09-03T19:13:22;7.10;;;5.70;;
57335;SDS011;43171;50.994;18.204;2022-09-03T19:22:39;6.40;;;5.50;;
57335;SDS011;43171;50.994;18.204;2022-09-03T19:25:25;8.10;;;5.70;;
57335;SDS011;43171;50.994;18.204;2022-09-03T19:28:18;7.60;;;5.50;;
57335;SDS011;43171;50.994;18.204;2022-09-03T19:34:13;7.20;;;5.70;;
57335;SDS011;43171;50.994;18.204;2022-09-03T19:40:13;9.40;;;5.60;;
57335;SDS011;43171;50.994;18.204;2022-09-03T19:43:06;7.60;;;5.50;;
57335;SDS011;43171;50.994;18.204;2022-09-03T19:49:23;8.80;;;6.60;;
57335;SDS011;43171;50.994;18.204;2022-09-03T19:55:25;10.40;;;6.90;;
57335;SDS011;43171;50.994;18.204;2022-09-03T19:58:11;10.60;;;7.50;;
57335;SDS011;43171;50.994;18.204;2022-09-03T20:01:00;11.20;;;7.30;;
57335;SDS011;43171;50.994;18.204;2022-09-03T20:03:45;9.80;;;7.50;;
57335;SDS011;43171;50.994;18.204;2022-09-03T20:06:30;10.80;;;7.40;;
57335;SDS011;43171;50.994;18.204;2022-09-03T20:09:17;12.20;;;7.50;;
57335;SDS011;43171;50.994;18.204;2022-09-03T20:12:06;9.90;;;6.90;;
57335;SDS011;43171;50.994;18.204;2022-09-03T20:14:35;10.40;;;7.20;;
57335;SDS011;43171;50.994;18.204;2022-09-03T20:22:17;10.50;;;7.60;;
57335;SDS011;43171;50.994;18.204;2022-09-03T20:25:07;11.80;;;8.10;;
57335;SDS011;43171;50.994;18.204;2022-09-03T20:36:20;11.50;;;8.70;;
57335;SDS011;43171;50.994;18.204;2022-09-03T20:49:30;14.80;;;10.30;;
57335;SDS011;43171;50.994;18.204;2022-09-03T20:52:09;15.00;;;9.30;;
57335;SDS011;43171;50.994;18.204;2022-09-03T20:57:45;16.30;;;10.40;;
57335;SDS011;43171;50.994;18.204;2022-09-03T21:00:51;14.50;;;10.00;;
57335;SDS011;43171;50.994;18.204;2022-09-03T21:03:21;12.70;;;9.90;;
57335;SDS011;43171;50.994;18.204;2022-09-03T21:06:34;14.10;;;9.70;;
57335;SDS011;43171;50.994;18.204;2022-09-03T21:14:45;17.00;;;11.10;;
57335;SDS011;43171;50.994;18.204;2022-09-03T21:22:29;14.40;;;10.70;;
57335;SDS011;43171;50.994;18.204;2022-09-03T21:28:35;14.50;;;10.90;;